Time;durP1;ratioP1;P1;durP2;ratioP2;P2;SDS_P1;SDS_P2;PMS_P1;PMS_P2;Temp;Humidity;BMP_temperature;BMP_pressure;BME280_temperature;BME280_humidity;BME280_pressure;Samples;Min_cycle;Max_cycle;Signal;HPM_P1;HPM_P2
2023/07/09 00:01:17;;;;;;;6.65;3.28;;;;;;;;;;5015384;28;20026;-66
2023/07/09 00:03:51;;;;;;;6.32;3.28;;;;;;;;;;5015382;28;20064;-65
2023/07/09 00:06:17;;;;;;;6.07;3.53;;;;;;;;;;5015136;28;20088;-65
2023/07/09 00:08:46;;;;;;;8.25;3.45;;;;;;;;;;4997458;28;20091;-65
2023/07/09 00:11:12;;;;;;;7.50;3.67;;;;;;;;;;5014837;28;20053;-66
2023/07/09 00:13:37;;;;;;;9.93;3.75;;;;;;;;;;4997428;28;20472;-65
2023/07/09 00:16:12;;;;;;;7.47;3.20;;;;;;;;;;5015014;28;20026;-65
2023/07/09 00:18:37;;;;;;;6.82;3.55;;;;;;;;;;5015143;28;20033;-66
2023/07/09 00:21:03;;;;;;;5.15;3.40;;;;;;;;;;5014991;28;20026;-65
2023/07/09 00:23:29;;;;;;;7.90;3.30;;;;;;;;;;5014991;28;20056;-66
2023/07/09 00:25:55;;;;;;;6.05;3.55;;;;;;;;;;5014416;28;20104;-65
2023/07/09 00:28:20;;;;;;;6.70;3.78;;;;;;;;;;5014856;28;20084;-66
2023/07/09 00:30:47;;;;;;;9.02;3.90;;;;;;;;;;5014810;28;20018;-65
2023/07/09 00:33:19;;;;;;;7.00;3.75;;;;;;;;;;5014717;28;20032;-65
2023/07/09 00:35:48;;;;;;;5.05;3.35;;;;;;;;;;5014664;28;20026;-65
2023/07/09 00:38:21;;;;;;;4.72;3.13;;;;;;;;;;5013636;28;20026;-65
2023/07/09 00:40:56;;;;;;;8.23;3.67;;;;;;;;;;5014142;28;20030;-65
2023/07/09 00:43:22;;;;;;;5.50;3.45;;;;;;;;;;5014439;28;20479;-67
2023/07/09 00:46:19;;;;;;;6.05;3.55;;;;;;;;;;5014399;28;20088;-65
2023/07/09 00:48:48;;;;;;;5.57;3.47;;;;;;;;;;5014559;28;20037;-66
2023/07/09 00:51:17;;;;;;;6.65;3.42;;;;;;;;;;5014466;28;20030;-66
2023/07/09 00:53:45;;;;;;;8.18;3.75;;;;;;;;;;5014361;28;20072;-66
2023/07/09 00:56:15;;;;;;;12.48;4.50;;;;;;;;;;5014146;28;20061;-66
2023/07/09 00:58:43;;;;;;;9.50;4.18;;;;;;;;;;5014402;28;20104;-66
2023/07/09 01:01:15;;;;;;;7.10;3.50;;;;;;;;;;5014283;28;20029;-65
2023/07/09 01:03:45;;;;;;;7.10;3.85;;;;;;;;;;5014192;28;20105;-65
2023/07/09 01:06:12;;;;;;;7.40;3.40;;;;;;;;;;5014128;28;20491;-65
2023/07/09 01:08:43;;;;;;;8.02;3.53;;;;;;;;;;5013848;28;20041;-66
2023/07/09 01:11:21;;;;;;;5.80;3.30;;;;;;;;;;5013761;28;20128;-65
2023/07/09 01:14:01;;;;;;;6.20;3.22;;;;;;;;;;5013978;28;20029;-66
2023/07/09 01:16:31;;;;;;;7.03;4.23;;;;;;;;;;5014016;28;20459;-65
2023/07/09 01:18:57;;;;;;;8.25;4.43;;;;;;;;;;5013951;28;20036;-65
2023/07/09 01:21:23;;;;;;;7.57;4.38;;;;;;;;;;5013759;28;20104;-65
2023/07/09 01:23:49;;;;;;;8.43;4.30;;;;;;;;;;5013653;28;20109;-65
2023/07/09 01:26:24;;;;;;;12.68;5.70;;;;;;;;;;5013689;28;20029;-65
2023/07/09 01:28:50;;;;;;;8.50;4.97;;;;;;;;;;5013803;28;20034;-65
2023/07/09 01:31:16;;;;;;;7.90;4.55;;;;;;;;;;5013679;28;20026;-66
2023/07/09 01:33:44;;;;;;;14.60;4.60;;;;;;;;;;5013653;28;20484;-65
2023/07/09 01:36:16;;;;;;;9.13;4.72;;;;;;;;;;5013681;28;20034;-66
2023/07/09 01:38:43;;;;;;;10.25;5.00;;;;;;;;;;5013299;28;20372;-65
2023/07/09 01:41:13;;;;;;;9.30;4.50;;;;;;;;;;5013436;28;20040;-67
2023/07/09 01:43:43;;;;;;;7.90;4.28;;;;;;;;;;5013302;28;20045;-66
2023/07/09 01:46:10;;;;;;;10.40;4.80;;;;;;;;;;5013582;28;20041;-66
2023/07/09 01:48:41;;;;;;;8.70;4.70;;;;;;;;;;5013016;28;20120;-65
2023/07/09 01:51:11;;;;;;;7.05;4.90;;;;;;;;;;5013285;28;20427;-66
2023/07/09 01:53:38;;;;;;;9.23;5.28;;;;;;;;;;5013259;28;20032;-66
2023/07/09 01:56:04;;;;;;;9.32;4.57;;;;;;;;;;5012588;28;20049;-66
2023/07/09 01:58:31;;;;;;;8.77;4.07;;;;;;;;;;5012840;28;20080;-65
2023/07/09 02:00:57;;;;;;;7.60;4.20;;;;;;;;;;5013036;28;20021;-65
2023/07/09 02:03:24;;;;;;;7.68;4.40;;;;;;;;;;5013152;28;20030;-65
2023/07/09 02:05:52;;;;;;;10.95;6.30;;;;;;;;;;5013030;28;20442;-65
2023/07/09 02:08:17;;;;;;;10.98;5.82;;;;;;;;;;5012865;28;20038;-65
2023/07/09 02:10:44;;;;;;;9.35;5.35;;;;;;;;;;5013073;28;20105;-65
2023/07/09 02:13:10;;;;;;;11.32;4.45;;;;;;;;;;5013004;28;20034;-66
2023/07/09 02:15:36;;;;;;;9.63;5.00;;;;;;;;;;5013037;28;20037;-66
2023/07/09 02:18:01;;;;;;;10.77;4.47;;;;;;;;;;5013115;28;20464;-66
2023/07/09 02:20:27;;;;;;;9.63;5.20;;;;;;;;;;5012878;28;20038;-65
2023/07/09 02:22:52;;;;;;;8.07;4.53;;;;;;;;;;5012756;28;20060;-66
2023/07/09 02:25:18;;;;;;;10.00;5.40;;;;;;;;;;5012974;28;20030;-66
2023/07/09 02:27:43;;;;;;;11.73;5.15;;;;;;;;;;5012565;28;20349;-65
2023/07/09 02:30:10;;;;;;;9.73;5.25;;;;;;;;;;5012916;28;20026;-65
2023/07/09 02:32:36;;;;;;;7.05;4.68;;;;;;;;;;5012794;28;20376;-66
2023/07/09 02:35:02;;;;;;;7.93;4.47;;;;;;;;;;5012738;28;20036;-66
2023/07/09 02:37:27;;;;;;;8.82;4.20;;;;;;;;;;5012593;28;20029;-66
2023/07/09 02:39:53;;;;;;;9.50;4.80;;;;;;;;;;5012525;28;20034;-66
2023/07/09 02:42:20;;;;;;;10.50;5.25;;;;;;;;;;5012519;28;20485;-66
2023/07/09 02:44:46;;;;;;;6.60;4.60;;;;;;;;;;5012327;28;20044;-66
2023/07/09 02:47:12;;;;;;;7.75;4.63;;;;;;;;;;5012594;28;20026;-65
2023/07/09 02:49:38;;;;;;;8.35;4.50;;;;;;;;;;5012680;28;20125;-65
2023/07/09 02:52:04;;;;;;;8.35;4.93;;;;;;;;;;5012414;28;20522;-67
2023/07/09 02:54:30;;;;;;;12.75;5.60;;;;;;;;;;5012554;28;20036;-65
2023/07/09 02:56:55;;;;;;;8.52;5.18;;;;;;;;;;5012364;28;20108;-65
2023/07/09 02:59:21;;;;;;;11.50;5.40;;;;;;;;;;5012636;28;20540;-65
2023/07/09 03:01:47;;;;;;;8.65;4.72;;;;;;;;;;5015998;28;20026;-65
2023/07/09 03:04:14;;;;;;;9.15;5.10;;;;;;;;;;5016410;28;20121;-65
2023/07/09 03:06:40;;;;;;;7.63;4.78;;;;;;;;;;5016092;28;20036;-65
2023/07/09 03:09:06;;;;;;;8.15;4.40;;;;;;;;;;5016075;28;20029;-65
2023/07/09 03:11:33;;;;;;;6.75;4.32;;;;;;;;;;5016212;28;20038;-66
2023/07/09 03:14:00;;;;;;;9.40;4.88;;;;;;;;;;5016214;28;20030;-65
2023/07/09 03:16:27;;;;;;;7.45;4.38;;;;;;;;;;5016023;28;20028;-65
2023/07/09 03:18:54;;;;;;;8.18;4.78;;;;;;;;;;5016074;28;20032;-66
2023/07/09 03:21:20;;;;;;;7.90;4.40;;;;;;;;;;5015762;28;20057;-65
2023/07/09 03:23:45;;;;;;;11.23;4.60;;;;;;;;;;5016044;28;20386;-66
2023/07/09 03:26:11;;;;;;;8.15;4.85;;;;;;;;;;5015839;28;20116;-65
2023/07/09 03:28:36;;;;;;;14.82;5.40;;;;;;;;;;5015903;28;20057;-66
2023/07/09 03:31:02;;;;;;;9.95;4.43;;;;;;;;;;5015865;28;20041;-66
2023/07/09 03:33:27;;;;;;;7.43;4.70;;;;;;;;;;5015875;28;20033;-66
2023/07/09 03:35:53;;;;;;;12.57;4.57;;;;;;;;;;5015646;28;20033;-65
2023/07/09 03:38:19;;;;;;;8.60;4.10;;;;;;;;;;5015720;28;20030;-67
2023/07/09 03:40:45;;;;;;;11.65;4.80;;;;;;;;;;5015508;28;20041;-66
2023/07/09 03:43:11;;;;;;;8.70;4.30;;;;;;;;;;5015438;28;20092;-66
2023/07/09 03:45:37;;;;;;;7.57;4.60;;;;;;;;;;5013736;28;20152;-65
2023/07/09 03:48:04;;;;;;;6.93;4.22;;;;;;;;;;5015360;28;20490;-66
2023/07/09 03:50:30;;;;;;;7.75;4.22;;;;;;;;;;5015231;28;20176;-65
2023/07/09 03:52:55;;;;;;;12.50;4.97;;;;;;;;;;5015359;28;20104;-67
2023/07/09 03:55:21;;;;;;;14.77;4.85;;;;;;;;;;5015526;28;20467;-66
2023/07/09 03:57:47;;;;;;;12.05;4.70;;;;;;;;;;5015436;28;20525;-65
2023/07/09 04:00:13;;;;;;;9.35;4.57;;;;;;;;;;5015413;28;20024;-67
2023/07/09 04:02:40;;;;;;;13.68;4.95;;;;;;;;;;5015511;28;20382;-66
2023/07/09 04:05:08;;;;;;;14.13;4.72;;;;;;;;;;5015082;28;20117;-67
2023/07/09 04:07:34;;;;;;;8.40;4.13;;;;;;;;;;5015261;28;20085;-67
2023/07/09 04:09:59;;;;;;;7.20;3.75;;;;;;;;;;5014946;28;20474;-67
2023/07/09 04:12:25;;;;;;;7.20;4.00;;;;;;;;;;5015002;28;20430;-66
2023/07/09 04:14:50;;;;;;;6.93;4.32;;;;;;;;;;5015216;28;20041;-66
2023/07/09 04:17:16;;;;;;;7.68;4.35;;;;;;;;;;5015111;28;20116;-66
2023/07/09 04:19:41;;;;;;;10.75;5.18;;;;;;;;;;5014587;28;20489;-67
2023/07/09 04:22:08;;;;;;;9.52;4.68;;;;;;;;;;5014960;28;20025;-66
2023/07/09 04:24:33;;;;;;;8.25;5.20;;;;;;;;;;5014997;28;20105;-67
2023/07/09 04:27:02;;;;;;;9.48;4.97;;;;;;;;;;5014781;28;20125;-65
2023/07/09 04:29:29;;;;;;;8.52;4.60;;;;;;;;;;5014916;28;20030;-66
2023/07/09 04:31:54;;;;;;;8.23;4.72;;;;;;;;;;5014834;28;20033;-66
2023/07/09 04:34:19;;;;;;;10.32;5.13;;;;;;;;;;5014616;28;20018;-66
2023/07/09 04:36:45;;;;;;;7.25;4.47;;;;;;;;;;5014776;28;20025;-65
2023/07/09 04:39:10;;;;;;;13.02;4.60;;;;;;;;;;5014600;28;20116;-66
2023/07/09 04:41:36;;;;;;;9.18;4.32;;;;;;;;;;5014259;28;20044;-67
2023/07/09 04:44:01;;;;;;;7.47;4.40;;;;;;;;;;5014542;28;20049;-65
2023/07/09 04:46:27;;;;;;;10.75;4.55;;;;;;;;;;5014605;28;20458;-65
2023/07/09 04:48:52;;;;;;;10.20;4.47;;;;;;;;;;5013646;28;20025;-65
2023/07/09 04:51:17;;;;;;;6.63;3.92;;;;;;;;;;5014601;28;20036;-66
2023/07/09 04:53:43;;;;;;;9.77;4.40;;;;;;;;;;5014406;28;20414;-67
2023/07/09 04:56:09;;;;;;;7.82;3.75;;;;;;;;;;5014489;28;20065;-65
2023/07/09 04:58:35;;;;;;;7.05;3.97;;;;;;;;;;5014397;28;20109;-66
2023/07/09 05:01:00;;;;;;;6.53;3.88;;;;;;;;;;5014214;28;20037;-66
2023/07/09 05:03:26;;;;;;;8.52;4.00;;;;;;;;;;5014103;28;20099;-66
2023/07/09 05:05:52;;;;;;;11.93;4.18;;;;;;;;;;5014109;28;20038;-66
2023/07/09 05:08:18;;;;;;;9.85;4.05;;;;;;;;;;5013993;28;20113;-65
2023/07/09 05:10:50;;;;;;;9.38;3.80;;;;;;;;;;5013998;28;20029;-66
2023/07/09 05:13:17;;;;;;;11.55;4.32;;;;;;;;;;5014023;28;20029;-66
2023/07/09 05:15:44;;;;;;;5.80;3.53;;;;;;;;;;5013925;28;20026;-67
2023/07/09 05:18:11;;;;;;;6.68;3.75;;;;;;;;;;5013951;28;20026;-66
2023/07/09 05:20:36;;;;;;;6.18;3.80;;;;;;;;;;5013756;28;20037;-66
2023/07/09 05:23:02;;;;;;;7.45;3.95;;;;;;;;;;5013315;28;20475;-66
2023/07/09 05:25:27;;;;;;;10.93;3.97;;;;;;;;;;5013777;28;20037;-65
2023/07/09 05:27:53;;;;;;;5.45;3.78;;;;;;;;;;4996140;28;20030;-65
2023/07/09 05:30:19;;;;;;;7.45;3.95;;;;;;;;;;5013501;28;20018;-65
2023/07/09 05:32:46;;;;;;;8.30;3.90;;;;;;;;;;5013640;28;20080;-65
2023/07/09 05:35:11;;;;;;;7.13;4.05;;;;;;;;;;5013648;28;20402;-66
2023/07/09 05:37:37;;;;;;;10.23;4.32;;;;;;;;;;5013611;28;20022;-66
2023/07/09 05:40:05;;;;;;;9.55;4.28;;;;;;;;;;5013363;28;20065;-66
2023/07/09 05:42:30;;;;;;;5.60;4.05;;;;;;;;;;5013369;28;20029;-65
2023/07/09 05:44:56;;;;;;;5.65;4.10;;;;;;;;;;5013039;28;20041;-64
2023/07/09 05:47:21;;;;;;;8.32;4.30;;;;;;;;;;5013586;28;20112;-64
2023/07/09 05:49:49;;;;;;;5.65;3.63;;;;;;;;;;5013048;28;20076;-64
2023/07/09 05:52:15;;;;;;;9.93;4.10;;;;;;;;;;5013409;28;20506;-66
2023/07/09 05:54:40;;;;;;;6.63;4.28;;;;;;;;;;5013554;28;20490;-69
2023/07/09 05:57:06;;;;;;;7.53;4.50;;;;;;;;;;5013201;28;20026;-64
2023/07/09 05:59:31;;;;;;;6.20;3.88;;;;;;;;;;5012989;28;20026;-63
2023/07/09 06:01:57;;;;;;;10.00;4.05;;;;;;;;;;5012908;28;20040;-64
2023/07/09 06:04:22;;;;;;;11.00;4.10;;;;;;;;;;5012976;28;20025;-63
2023/07/09 06:06:48;;;;;;;7.93;3.92;;;;;;;;;;5012886;28;20112;-64
2023/07/09 06:09:15;;;;;;;6.72;3.72;;;;;;;;;;5012643;28;20041;-64
2023/07/09 06:11:40;;;;;;;7.63;3.88;;;;;;;;;;5012854;28;20543;-64
2023/07/09 06:14:06;;;;;;;7.47;3.72;;;;;;;;;;5011682;28;20133;-64
2023/07/09 06:16:31;;;;;;;7.32;3.40;;;;;;;;;;5012834;28;20060;-64
2023/07/09 06:18:56;;;;;;;6.93;3.53;;;;;;;;;;5012942;28;20122;-66
2023/07/09 06:21:22;;;;;;;8.05;3.63;;;;;;;;;;5012046;28;20020;-64
2023/07/09 06:23:47;;;;;;;6.32;3.25;;;;;;;;;;5012865;28;20033;-64
2023/07/09 06:26:13;;;;;;;5.18;2.92;;;;;;;;;;5012686;28;20085;-64
2023/07/09 06:28:38;;;;;;;7.38;3.33;;;;;;;;;;5012679;28;20112;-64
2023/07/09 06:31:04;;;;;;;6.13;3.40;;;;;;;;;;5012847;28;20033;-64
2023/07/09 06:33:29;;;;;;;5.05;3.50;;;;;;;;;;5012827;28;20030;-66
2023/07/09 06:36:00;;;;;;;8.98;3.83;;;;;;;;;;5011383;28;20388;-64
2023/07/09 06:38:27;;;;;;;6.10;3.85;;;;;;;;;;5010860;28;20021;-64
2023/07/09 06:40:52;;;;;;;8.23;3.60;;;;;;;;;;5010463;28;20475;-64
2023/07/09 06:43:18;;;;;;;5.82;3.20;;;;;;;;;;5010429;28;20038;-64
2023/07/09 06:45:50;;;;;;;5.97;3.38;;;;;;;;;;5010703;28;20033;-64
2023/07/09 06:48:15;;;;;;;4.70;3.13;;;;;;;;;;5010678;28;20037;-64
2023/07/09 06:50:41;;;;;;;7.75;3.13;;;;;;;;;;5010532;28;20018;-64
2023/07/09 06:53:06;;;;;;;4.75;3.05;;;;;;;;;;5012721;28;20149;-64
2023/07/09 06:55:32;;;;;;;6.60;3.30;;;;;;;;;;5012651;28;20029;-64
2023/07/09 06:57:57;;;;;;;7.40;3.10;;;;;;;;;;5012361;28;20030;-65
2023/07/09 07:00:23;;;;;;;7.65;2.65;;;;;;;;;;5012407;28;20018;-64
2023/07/09 07:02:48;;;;;;;6.40;2.78;;;;;;;;;;5012566;28;20100;-64
2023/07/09 07:05:14;;;;;;;6.22;2.90;;;;;;;;;;5012550;28;20128;-64
2023/07/09 07:07:39;;;;;;;4.30;2.75;;;;;;;;;;5012563;28;20030;-65
2023/07/09 07:10:05;;;;;;;4.03;2.78;;;;;;;;;;5012228;28;20083;-64
2023/07/09 07:12:42;;;;;;;5.40;2.40;;;;;;;;;;5012023;28;20049;-64
2023/07/09 07:15:08;;;;;;;6.00;2.97;;;;;;;;;;5012490;28;20116;-65
2023/07/09 07:17:33;;;;;;;4.85;2.95;;;;;;;;;;5012382;28;20129;-64
2023/07/09 07:19:58;;;;;;;5.68;2.53;;;;;;;;;;5012199;28;20029;-65
2023/07/09 07:22:24;;;;;;;7.40;2.85;;;;;;;;;;5012334;28;20025;-65
2023/07/09 07:24:49;;;;;;;4.85;2.90;;;;;;;;;;5012319;28;20088;-65
2023/07/09 07:27:15;;;;;;;5.10;2.90;;;;;;;;;;5012065;28;20498;-64
2023/07/09 07:29:40;;;;;;;6.57;2.90;;;;;;;;;;5012344;28;20415;-64
2023/07/09 07:32:06;;;;;;;6.57;3.05;;;;;;;;;;5012347;28;20460;-65
2023/07/09 07:34:32;;;;;;;7.90;2.78;;;;;;;;;;5012235;28;20033;-64
2023/07/09 07:36:57;;;;;;;5.47;2.95;;;;;;;;;;5012199;28;20341;-64
2023/07/09 07:39:23;;;;;;;5.97;2.50;;;;;;;;;;5012186;28;20022;-64
2023/07/09 07:41:50;;;;;;;6.40;2.88;;;;;;;;;;5011764;28;20025;-64
2023/07/09 07:44:16;;;;;;;6.80;2.63;;;;;;;;;;5012059;28;20053;-64
2023/07/09 07:46:41;;;;;;;6.97;3.60;;;;;;;;;;5013671;28;20030;-65
2023/07/09 07:49:06;;;;;;;5.22;2.60;;;;;;;;;;5015311;28;20494;-66
2023/07/09 07:51:33;;;;;;;7.78;3.30;;;;;;;;;;5015648;28;20030;-64
2023/07/09 07:53:59;;;;;;;4.05;2.85;;;;;;;;;;5015595;28;20163;-64
2023/07/09 07:56:25;;;;;;;5.65;2.58;;;;;;;;;;5014957;28;20018;-65
2023/07/09 07:58:51;;;;;;;4.72;2.60;;;;;;;;;;5015450;28;20037;-64
2023/07/09 08:01:16;;;;;;;6.97;2.30;;;;;;;;;;5015580;28;20041;-65
2023/07/09 08:03:42;;;;;;;5.03;2.47;;;;;;;;;;5015377;28;20109;-65
2023/07/09 08:06:07;;;;;;;5.13;2.50;;;;;;;;;;5015374;28;20467;-65
2023/07/09 08:08:33;;;;;;;4.55;2.30;;;;;;;;;;5014870;28;20088;-65
2023/07/09 08:11:04;;;;;;;4.88;2.45;;;;;;;;;;5014772;28;20033;-64
2023/07/09 08:13:32;;;;;;;5.95;2.20;;;;;;;;;;5015144;28;20033;-64
2023/07/09 08:15:58;;;;;;;3.13;1.65;;;;;;;;;;5015199;28;20026;-65
2023/07/09 08:18:23;;;;;;;5.22;2.20;;;;;;;;;;5014710;28;20030;-65
2023/07/09 08:20:49;;;;;;;3.70;1.98;;;;;;;;;;5014930;28;20053;-64
2023/07/09 08:23:14;;;;;;;3.10;1.95;;;;;;;;;;5015112;28;20029;-64
2023/07/09 08:25:40;;;;;;;3.45;1.90;;;;;;;;;;5014601;28;20026;-64
2023/07/09 08:28:06;;;;;;;4.55;1.90;;;;;;;;;;5014992;28;20030;-64
2023/07/09 08:30:31;;;;;;;4.80;2.00;;;;;;;;;;5014793;28;20032;-65
2023/07/09 08:32:57;;;;;;;3.63;2.13;;;;;;;;;;5014948;28;20034;-64
2023/07/09 08:35:22;;;;;;;3.42;1.80;;;;;;;;;;5014671;28;20030;-64
2023/07/09 08:37:48;;;;;;;4.82;2.22;;;;;;;;;;5014832;28;20065;-64
2023/07/09 08:40:15;;;;;;;5.97;2.10;;;;;;;;;;5014380;28;20068;-64
2023/07/09 08:42:47;;;;;;;5.05;2.00;;;;;;;;;;5014440;28;20036;-65
2023/07/09 08:45:43;;;;;;;7.30;2.05;;;;;;;;;;5014461;28;20036;-63
2023/07/09 08:48:23;;;;;;;5.55;2.00;;;;;;;;;;5014682;28;20038;-64
2023/07/09 08:50:59;;;;;;;3.78;2.00;;;;;;;;;;5014490;28;20022;-64
2023/07/09 08:53:37;;;;;;;4.38;2.20;;;;;;;;;;5014242;28;20021;-64
2023/07/09 08:56:03;;;;;;;7.07;2.10;;;;;;;;;;5014606;28;20530;-64
2023/07/09 08:58:31;;;;;;;2.60;1.80;;;;;;;;;;5013464;28;20049;-64
2023/07/09 09:00:59;;;;;;;3.28;2.20;;;;;;;;;;5014119;28;20029;-65
2023/07/09 09:03:50;;;;;;;3.17;2.10;;;;;;;;;;5014237;28;20092;-65
2023/07/09 09:06:37;;;;;;;3.90;1.85;;;;;;;;;;5014237;28;20026;-66
2023/07/09 09:09:08;;;;;;;4.88;2.20;;;;;;;;;;5013672;28;20100;-64
2023/07/09 09:11:53;;;;;;;3.08;1.90;;;;;;;;;;5014071;28;20058;-64
2023/07/09 09:14:32;;;;;;;4.65;2.30;;;;;;;;;;5014052;28;20021;-65
2023/07/09 09:16:59;;;;;;;3.17;2.22;;;;;;;;;;5014090;28;20029;-65
2023/07/09 09:19:36;;;;;;;5.28;2.25;;;;;;;;;;5013829;28;20026;-64
2023/07/09 09:22:11;;;;;;;2.83;2.03;;;;;;;;;;5013687;28;20362;-64
2023/07/09 09:24:39;;;;;;;4.63;2.38;;;;;;;;;;5013935;28;20463;-65
2023/07/09 09:27:05;;;;;;;3.17;1.98;;;;;;;;;;5013700;28;20034;-65
2023/07/09 09:29:31;;;;;;;4.00;2.28;;;;;;;;;;5013518;28;20028;-65
2023/07/09 09:31:58;;;;;;;3.75;2.17;;;;;;;;;;5013819;28;20353;-64
2023/07/09 09:34:28;;;;;;;4.00;1.83;;;;;;;;;;5013700;28;20022;-65
2023/07/09 09:36:56;;;;;;;3.00;1.80;;;;;;;;;;5013556;28;20082;-65
2023/07/09 09:39:24;;;;;;;2.65;1.90;;;;;;;;;;5013592;28;20091;-67
2023/07/09 09:41:56;;;;;;;4.63;2.22;;;;;;;;;;5013475;28;20029;-65
2023/07/09 09:44:26;;;;;;;3.15;1.92;;;;;;;;;;5013355;28;20049;-64
2023/07/09 09:46:52;;;;;;;4.70;2.05;;;;;;;;;;5013407;28;20072;-65
2023/07/09 09:49:17;;;;;;;2.85;1.75;;;;;;;;;;5013466;28;20058;-66
2023/07/09 09:51:46;;;;;;;3.45;2.10;;;;;;;;;;5013258;28;20037;-66
2023/07/09 09:54:27;;;;;;;2.73;1.63;;;;;;;;;;5013269;28;20498;-65
2023/07/09 09:56:53;;;;;;;3.65;2.10;;;;;;;;;;5013244;28;20057;-65
2023/07/09 09:59:31;;;;;;;3.50;2.08;;;;;;;;;;5013310;28;20026;-68
2023/07/09 10:02:03;;;;;;;3.05;1.90;;;;;;;;;;5013304;28;20421;-67
2023/07/09 10:04:28;;;;;;;3.08;2.00;;;;;;;;;;5013280;28;20029;-65
2023/07/09 10:07:04;;;;;;;2.80;2.00;;;;;;;;;;5012856;28;20025;-68
2023/07/09 10:09:54;;;;;;;3.50;2.08;;;;;;;;;;5012867;28;20459;-66
2023/07/09 10:12:42;;;;;;;2.83;1.70;;;;;;;;;;5010311;28;20037;-66
2023/07/09 10:15:08;;;;;;;3.58;2.15;;;;;;;;;;5013025;28;20375;-65
2023/07/09 10:17:37;;;;;;;3.03;2.15;;;;;;;;;;5013042;28;20033;-64
2023/07/09 10:20:08;;;;;;;;;;;;;;;;;;5012974;28;20022;-65
2023/07/09 10:22:53;;;;;;;2.70;2.20;;;;;;;;;;5012706;28;19914;-65
2023/07/09 10:25:24;;;;;;;5.18;2.03;;;;;;;;;;5012856;28;20022;-65
2023/07/09 10:28:08;;;;;;;3.00;1.95;;;;;;;;;;5012863;28;20121;-64
2023/07/09 10:30:45;;;;;;;3.33;2.38;;;;;;;;;;5012969;28;20494;-64
2023/07/09 10:33:17;;;;;;;4.72;2.10;;;;;;;;;;5012991;28;20030;-64
2023/07/09 10:36:06;;;;;;;4.88;2.20;;;;;;;;;;5012611;28;20022;-65
2023/07/09 10:38:48;;;;;;;3.33;2.10;;;;;;;;;;5012798;28;20022;-66
2023/07/09 10:41:14;;;;;;;3.92;2.00;;;;;;;;;;5012518;28;20041;-66
2023/07/09 10:43:42;;;;;;;2.70;1.90;;;;;;;;;;5012474;28;20168;-64
2023/07/09 10:46:15;;;;;;;5.20;2.42;;;;;;;;;;5012651;28;20038;-65
2023/07/09 10:48:45;;;;;;;3.97;2.20;;;;;;;;;;5012768;28;20030;-65
2023/07/09 10:51:32;;;;;;;3.40;2.20;;;;;;;;;;5012414;28;20117;-65
2023/07/09 10:54:17;;;;;;;3.90;2.13;;;;;;;;;;5012886;28;20492;-65
2023/07/09 10:56:47;;;;;;;3.75;2.10;;;;;;;;;;5012780;28;20463;-67
2023/07/09 10:59:36;;;;;;;4.05;2.50;;;;;;;;;;5012683;28;20486;-64
2023/07/09 11:02:32;;;;;;;4.90;2.03;;;;;;;;;;5012686;28;20503;-65
2023/07/09 11:05:00;;;;;;;3.90;1.98;;;;;;;;;;5012130;28;20037;-65
2023/07/09 11:07:41;;;;;;;2.37;1.80;;;;;;;;;;5012640;28;20537;-64
2023/07/09 11:10:38;;;;;;;2.70;2.00;;;;;;;;;;5012330;28;20029;-64
2023/07/09 11:13:10;;;;;;;3.30;2.22;;;;;;;;;;5010176;28;20483;-65
2023/07/09 11:15:48;;;;;;;5.03;1.95;;;;;;;;;;5012349;28;20022;-67
2023/07/09 11:18:30;;;;;;;3.13;2.22;;;;;;;;;;5012196;28;20026;-67
2023/07/09 11:21:00;;;;;;;3.45;2.20;;;;;;;;;;4995148;28;20364;-67
2023/07/09 11:23:36;;;;;;;4.70;2.10;;;;;;;;;;5016096;28;20029;-64
2023/07/09 11:26:26;;;;;;;3.42;1.80;;;;;;;;;;5016062;28;20034;-64
2023/07/09 11:28:54;;;;;;;3.17;2.30;;;;;;;;;;4998581;28;20041;-64
2023/07/09 11:31:24;;;;;;;6.33;2.30;;;;;;;;;;5015853;28;20029;-64
2023/07/09 11:34:08;;;;;;;3.75;2.35;;;;;;;;;;5015632;28;20411;-64
2023/07/09 11:36:46;;;;;;;3.35;2.20;;;;;;;;;;5016027;28;20029;-64
2023/07/09 11:39:36;;;;;;;3.38;2.00;;;;;;;;;;5015933;28;20037;-64
2023/07/09 11:42:01;;;;;;;4.22;1.95;;;;;;;;;;4996359;28;20340;-64
2023/07/09 11:44:29;;;;;;;3.42;2.10;;;;;;;;;;4996038;28;20046;-65
2023/07/09 11:46:58;;;;;;;3.25;1.90;;;;;;;;;;4996080;28;20396;-64
2023/07/09 11:49:30;;;;;;;3.47;2.00;;;;;;;;;;4996124;28;20030;-63
2023/07/09 11:52:02;;;;;;;2.72;2.05;;;;;;;;;;4996219;28;20030;-64
2023/07/09 11:54:27;;;;;;;3.50;2.05;;;;;;;;;;4995921;28;20081;-63
2023/07/09 11:56:57;;;;;;;3.50;2.00;;;;;;;;;;4996085;28;20419;-63
2023/07/09 11:59:24;;;;;;;3.38;2.10;;;;;;;;;;4995974;28;20030;-63
2023/07/09 12:01:54;;;;;;;4.13;1.95;;;;;;;;;;4995624;28;20042;-63
2023/07/09 12:04:34;;;;;;;3.08;2.00;;;;;;;;;;4995711;28;20064;-64
2023/07/09 12:07:01;;;;;;;3.85;1.80;;;;;;;;;;4995727;28;20507;-64
2023/07/09 12:09:39;;;;;;;2.50;1.73;;;;;;;;;;5007573;28;20468;-64
2023/07/09 12:12:16;;;;;;;3.50;1.98;;;;;;;;;;5015216;28;20112;-64
2023/07/09 12:14:41;;;;;;;3.53;1.90;;;;;;;;;;5015291;28;20483;-64
2023/07/09 12:17:09;;;;;;;4.32;1.73;;;;;;;;;;5015028;28;20026;-64
2023/07/09 12:19:34;;;;;;;4.57;2.17;;;;;;;;;;5015204;28;20022;-64
2023/07/09 12:22:00;;;;;;;4.03;1.80;;;;;;;;;;5015125;28;20371;-64
2023/07/09 12:24:28;;;;;;;3.20;1.70;;;;;;;;;;5015104;28;20375;-64
2023/07/09 12:26:55;;;;;;;3.28;2.08;;;;;;;;;;5014778;28;20506;-64
2023/07/09 12:29:30;;;;;;;2.80;1.80;;;;;;;;;;5014836;28;20109;-65
2023/07/09 12:31:57;;;;;;;3.45;1.92;;;;;;;;;;5014792;28;20470;-64
2023/07/09 12:34:23;;;;;;;2.83;1.50;;;;;;;;;;5014809;28;20092;-64
2023/07/09 12:36:51;;;;;;;3.65;1.63;;;;;;;;;;5014987;28;20026;-63
2023/07/09 12:39:23;;;;;;;2.40;1.40;;;;;;;;;;5014714;28;20049;-63
2023/07/09 12:41:49;;;;;;;3.63;1.80;;;;;;;;;;5014395;28;20438;-64
2023/07/09 12:44:17;;;;;;;2.35;1.55;;;;;;;;;;5014022;28;20042;-64
2023/07/09 12:46:44;;;;;;;2.90;1.50;;;;;;;;;;5013523;28;20079;-64
2023/07/09 12:49:25;;;;;;;2.67;1.58;;;;;;;;;;5013745;28;20029;-65
2023/07/09 12:51:54;;;;;;;2.13;1.30;;;;;;;;;;5013767;28;20026;-64
2023/07/09 12:54:24;;;;;;;2.75;1.80;;;;;;;;;;5013556;28;20479;-63
2023/07/09 12:56:54;;;;;;;3.45;1.77;;;;;;;;;;5013505;28;20030;-63
2023/07/09 12:59:20;;;;;;;4.82;1.60;;;;;;;;;;5013301;28;20034;-63
2023/07/09 13:02:18;;;;;;;3.15;1.58;;;;;;;;;;5013278;28;20030;-64
2023/07/09 13:04:44;;;;;;;3.42;1.80;;;;;;;;;;5013205;28;20031;-63
2023/07/09 13:07:39;;;;;;;2.42;1.67;;;;;;;;;;5013448;28;20121;-64
2023/07/09 13:10:16;;;;;;;4.28;1.50;;;;;;;;;;5004459;28;20101;-63
2023/07/09 13:12:45;;;;;;;2.97;1.40;;;;;;;;;;5013366;28;20033;-63
2023/07/09 13:15:30;;;;;;;4.80;1.50;;;;;;;;;;5013308;28;20022;-63
2023/07/09 13:18:02;;;;;;;2.20;1.25;;;;;;;;;;5013305;28;20263;-65
2023/07/09 13:20:28;;;;;;;2.92;1.40;;;;;;;;;;5013205;28;20138;-64
2023/07/09 13:22:54;;;;;;;2.55;1.63;;;;;;;;;;5013061;28;20037;-64
2023/07/09 13:25:19;;;;;;;2.35;1.48;;;;;;;;;;5013224;28;20030;-64
2023/07/09 13:27:45;;;;;;;5.38;1.40;;;;;;;;;;5012951;28;20026;-64
2023/07/09 13:30:12;;;;;;;3.80;1.70;;;;;;;;;;5012429;28;20080;-64
2023/07/09 13:32:37;;;;;;;4.03;1.55;;;;;;;;;;5013079;28;20092;-65
2023/07/09 13:35:12;;;;;;;3.75;1.60;;;;;;;;;;5013043;28;20022;-67
2023/07/09 13:37:37;;;;;;;2.58;1.33;;;;;;;;;;5013000;28;20036;-64
2023/07/09 13:40:03;;;;;;;3.55;1.60;;;;;;;;;;5012781;28;20022;-65
2023/07/09 13:42:29;;;;;;;1.73;0.90;;;;;;;;;;5012946;28;20026;-68
2023/07/09 13:44:55;;;;;;;1.65;1.00;;;;;;;;;;4971201;28;1203344;-64
2023/07/09 13:47:21;;;;;;;3.67;1.17;;;;;;;;;;5013450;28;20099;-64
2023/07/09 13:49:47;;;;;;;1.83;1.20;;;;;;;;;;5013536;28;20034;-64
2023/07/09 13:52:16;;;;;;;2.70;1.30;;;;;;;;;;5013465;28;20026;-64
2023/07/09 13:54:42;;;;;;;2.55;1.52;;;;;;;;;;5013385;28;20026;-64
2023/07/09 13:57:13;;;;;;;2.38;1.30;;;;;;;;;;5013514;28;20038;-65
2023/07/09 13:59:39;;;;;;;2.17;1.23;;;;;;;;;;5013094;28;20026;-64
2023/07/09 14:02:23;;;;;;;1.85;1.15;;;;;;;;;;5013423;28;20035;-64
2023/07/09 14:04:48;;;;;;;3.13;1.50;;;;;;;;;;5013308;28;20036;-65
2023/07/09 14:07:34;;;;;;;2.65;1.35;;;;;;;;;;5013197;28;20034;-64
2023/07/09 14:10:00;;;;;;;2.40;1.30;;;;;;;;;;5013072;28;20097;-64
2023/07/09 14:12:27;;;;;;;3.05;1.40;;;;;;;;;;5012836;28;20434;-68
2023/07/09 14:14:55;;;;;;;2.30;1.20;;;;;;;;;;5013067;28;20034;-64
2023/07/09 14:17:22;;;;;;;4.93;1.30;;;;;;;;;;5013018;28;20030;-64
2023/07/09 14:19:48;;;;;;;2.58;1.30;;;;;;;;;;5012815;28;20036;-66
2023/07/09 14:22:33;;;;;;;1.90;1.20;;;;;;;;;;5013078;28;20378;-66
2023/07/09 14:24:59;;;;;;;3.00;1.27;;;;;;;;;;5012939;28;20018;-64
2023/07/09 14:27:25;;;;;;;1.90;1.17;;;;;;;;;;5012772;28;20030;-65
2023/07/09 14:29:51;;;;;;;1.95;1.20;;;;;;;;;;5012866;28;20022;-64
2023/07/09 14:32:22;;;;;;;2.15;1.20;;;;;;;;;;5012778;28;20357;-64
2023/07/09 14:34:47;;;;;;;3.30;1.45;;;;;;;;;;5012616;28;20162;-64
2023/07/09 14:37:13;;;;;;;2.65;1.30;;;;;;;;;;5009735;28;20029;-64
2023/07/09 14:39:38;;;;;;;2.53;1.27;;;;;;;;;;5011594;28;20025;-64
2023/07/09 14:42:04;;;;;;;4.05;1.40;;;;;;;;;;5010572;28;20475;-64
2023/07/09 14:44:31;;;;;;;1.90;1.10;;;;;;;;;;5011743;28;20497;-64
2023/07/09 14:46:59;;;;;;;1.92;1.30;;;;;;;;;;5011979;28;20034;-64
2023/07/09 14:49:26;;;;;;;2.55;1.27;;;;;;;;;;5012025;28;20109;-65
2023/07/09 14:51:52;;;;;;;3.17;1.00;;;;;;;;;;5011787;28;20507;-65
2023/07/09 14:54:29;;;;;;;2.10;1.20;;;;;;;;;;5010199;28;20430;-64